createdAt,value
2023-04-08T00:00:58.480Z,9.13
2023-04-08T00:03:30.626Z,7.50
2023-04-08T00:06:00.854Z,8.35
2023-04-08T00:08:30.548Z,8.48
2023-04-08T00:10:58.928Z,8.43
2023-04-08T00:13:30.924Z,9.20
2023-04-08T00:15:59.310Z,7.40
2023-04-08T00:18:30.580Z,7.15
2023-04-08T00:21:00.015Z,7.47
2023-04-08T00:23:30.613Z,8.13
2023-04-08T00:26:00.031Z,7.60
2023-04-08T00:28:29.545Z,6.40
2023-04-08T00:30:58.176Z,7.97
2023-04-08T00:33:30.167Z,7.57
2023-04-08T00:35:58.556Z,8.13
2023-04-08T00:38:26.802Z,6.93
2023-04-08T00:40:55.149Z,9.05
2023-04-08T00:43:25.086Z,9.23
2023-04-08T00:45:53.410Z,8.23
2023-04-08T00:48:22.967Z,7.85
2023-04-08T00:50:54.287Z,8.85
2023-04-08T00:53:25.750Z,8.38
2023-04-08T00:55:55.444Z,7.07
2023-04-08T00:58:25.003Z,7.18
2023-04-08T01:01:01.503Z,7.35
2023-04-08T01:03:43.592Z,5.95
2023-04-08T01:06:23.926Z,6.60
2023-04-08T01:08:55.150Z,6.30
2023-04-08T01:11:25.000Z,7.70
2023-04-08T01:13:57.376Z,5.57
2023-04-08T01:16:27.391Z,5.57
2023-04-08T01:18:57.706Z,6.40
2023-04-08T01:21:28.934Z,7.18
2023-04-08T01:24:08.970Z,5.85
2023-04-08T01:26:39.522Z,6.85
2023-04-08T01:29:10.266Z,8.98
2023-04-08T01:31:41.708Z,8.32
2023-04-08T01:34:12.734Z,6.05
2023-04-08T01:36:42.358Z,7.95
2023-04-08T01:39:13.269Z,7.00
2023-04-08T01:41:43.407Z,10.13
2023-04-08T01:44:16.329Z,6.78
2023-04-08T01:46:46.424Z,6.70
2023-04-08T01:49:16.975Z,8.50
2023-04-08T01:51:47.498Z,8.32
2023-04-08T01:54:18.259Z,9.10
2023-04-08T01:56:49.109Z,8.65
2023-04-08T01:59:20.779Z,7.60
2023-04-08T02:01:52.068Z,9.00
2023-04-08T02:04:22.893Z,6.85
2023-04-08T02:06:52.520Z,8.40
2023-04-08T02:09:21.952Z,8.77
2023-04-08T02:11:52.857Z,7.43
2023-04-08T02:14:22.653Z,8.20
2023-04-08T02:16:57.096Z,7.60
2023-04-08T02:19:37.386Z,8.27
2023-04-08T02:22:13.270Z,8.98
2023-04-08T02:24:42.165Z,9.60
2023-04-08T02:27:12.535Z,8.70
2023-04-08T02:29:43.605Z,8.93
2023-04-08T02:32:13.688Z,10.18
2023-04-08T02:34:45.987Z,14.05
2023-04-08T02:37:15.525Z,13.35
2023-04-08T02:39:45.101Z,10.88
2023-04-08T02:42:14.754Z,13.27
2023-04-08T02:44:44.244Z,11.30
2023-04-08T02:47:13.775Z,9.57
2023-04-08T02:49:41.924Z,9.20
2023-04-08T02:52:11.308Z,9.50
2023-04-08T02:54:40.851Z,11.13
2023-04-08T02:57:09.146Z,8.90
2023-04-08T02:59:40.959Z,6.55
2023-04-08T03:02:12.478Z,7.95
2023-04-08T03:04:41.949Z,7.30
2023-04-08T03:07:10.930Z,9.18
2023-04-08T03:09:41.751Z,10.82
2023-04-08T03:12:09.997Z,8.57
2023-04-08T03:14:40.924Z,10.13
2023-04-08T03:17:10.612Z,7.60
2023-04-08T03:19:41.649Z,7.22
2023-04-08T03:22:10.772Z,9.00
2023-04-08T03:24:40.697Z,9.07
2023-04-08T03:27:09.691Z,9.30
2023-04-08T03:32:10.167Z,7.10
2023-04-08T03:34:40.867Z,8.40
2023-04-08T03:37:10.352Z,10.82
2023-04-08T03:39:39.291Z,8.70
2023-04-08T03:42:08.711Z,10.75
2023-04-08T03:44:38.126Z,9.48
2023-04-08T03:47:08.850Z,8.38
2023-04-08T03:49:38.293Z,10.90
2023-04-08T03:52:07.069Z,7.72
2023-04-08T03:54:36.688Z,9.60
2023-04-08T03:57:06.116Z,9.98
2023-04-08T03:59:37.693Z,8.27
2023-04-08T04:02:06.307Z,7.53
2023-04-08T04:04:37.361Z,9.60
2023-04-08T04:07:05.619Z,6.70
2023-04-08T04:09:33.933Z,8.98
2023-04-08T04:12:03.368Z,12.05
2023-04-08T04:14:32.857Z,12.93
2023-04-08T04:17:02.270Z,13.13
2023-04-08T04:19:33.806Z,12.88
2023-04-08T04:22:03.386Z,13.05
2023-04-08T04:24:31.668Z,11.38
2023-04-08T04:27:01.111Z,12.55
2023-04-08T04:29:29.323Z,13.15
2023-04-08T04:31:58.710Z,13.00
2023-04-08T04:34:28.067Z,15.27
2023-04-08T04:36:56.627Z,10.90
2023-04-08T04:39:27.615Z,15.40
2023-04-08T04:41:55.855Z,13.45
2023-04-08T04:44:26.810Z,13.48
2023-04-08T04:46:55.049Z,12.80
2023-04-08T04:49:25.798Z,14.75
2023-04-08T04:51:55.477Z,15.10
2023-04-08T04:54:27.765Z,12.30
2023-04-08T04:56:57.197Z,14.48
2023-04-08T04:59:26.723Z,13.32
2023-04-08T05:01:57.680Z,14.68
2023-04-08T05:04:27.521Z,14.57
2023-04-08T05:06:55.759Z,13.15
2023-04-08T05:09:26.655Z,15.65
2023-04-08T05:11:54.862Z,14.57
2023-04-08T05:14:25.717Z,17.95
2023-04-08T05:16:55.145Z,14.15
2023-04-08T05:19:24.671Z,17.73
2023-04-08T05:21:55.556Z,10.95
2023-04-08T05:24:26.438Z,14.27
2023-04-08T05:26:54.632Z,13.85
2023-04-08T05:29:25.482Z,17.90
2023-04-08T05:31:53.780Z,13.02
2023-04-08T05:34:24.883Z,16.55
2023-04-08T05:36:53.170Z,12.88
2023-04-08T05:39:23.874Z,13.43
2023-04-08T05:41:53.715Z,7.75
2023-04-08T05:44:24.382Z,12.38
2023-04-08T05:46:53.806Z,18.05
2023-04-08T05:49:23.270Z,15.13
2023-04-08T05:51:51.726Z,13.82
2023-04-08T05:54:21.201Z,11.82
2023-04-08T05:56:50.831Z,13.20
2023-04-08T05:59:22.817Z,44.10
2023-04-08T06:01:52.424Z,13.48
2023-04-08T06:04:22.221Z,11.90
2023-04-08T06:06:51.758Z,10.27
2023-04-08T06:09:21.574Z,12.88
2023-04-08T06:11:51.534Z,11.88
2023-04-08T06:14:21.699Z,12.32
2023-04-08T06:16:53.205Z,14.13
2023-04-08T06:19:22.841Z,14.30
2023-04-08T06:21:51.698Z,13.40
2023-04-08T06:24:22.434Z,11.32
2023-04-08T06:26:52.599Z,11.23
2023-04-08T06:29:24.297Z,10.68
2023-04-08T06:31:53.858Z,8.35
2023-04-08T06:34:23.549Z,11.27
2023-04-08T06:36:51.920Z,17.48
2023-04-08T06:39:21.615Z,11.27
2023-04-08T06:41:50.019Z,8.52
2023-04-08T06:44:37.896Z,10.52
2023-04-08T06:47:07.292Z,12.38
2023-04-08T06:49:37.328Z,13.73
2023-04-08T06:54:37.490Z,11.68
2023-04-08T06:57:05.835Z,14.07
2023-04-08T06:59:39.815Z,11.82
2023-04-08T07:02:12.513Z,11.45
2023-04-08T07:04:45.517Z,10.15
2023-04-08T07:07:16.407Z,11.13
2023-04-08T07:09:46.829Z,10.07
2023-04-08T07:12:15.741Z,11.88
2023-04-08T07:14:46.470Z,10.40
2023-04-08T07:17:16.035Z,14.10
2023-04-08T07:19:46.115Z,11.38
2023-04-08T07:22:16.165Z,11.90
2023-04-08T07:24:50.785Z,16.02
2023-04-08T07:27:19.049Z,14.00
2023-04-08T07:29:55.943Z,13.30
2023-04-08T07:32:25.538Z,13.18
2023-04-08T07:34:55.273Z,13.45
2023-04-08T07:37:23.567Z,13.52
2023-04-08T07:39:54.172Z,13.10
2023-04-08T07:42:23.771Z,8.50
2023-04-08T07:44:54.838Z,11.05
2023-04-08T07:47:23.184Z,14.25
2023-04-08T07:49:55.749Z,12.75
2023-04-08T07:52:25.313Z,10.90
2023-04-08T07:54:54.877Z,11.85
2023-04-08T07:57:23.635Z,11.63
2023-04-08T07:59:55.851Z,10.55
2023-04-08T08:02:24.266Z,13.00
2023-04-08T08:04:55.001Z,10.65
2023-04-08T08:07:24.637Z,12.07
2023-04-08T08:09:52.878Z,8.85
2023-04-08T08:12:22.408Z,14.65
2023-04-08T08:14:54.806Z,16.08
2023-04-08T08:17:27.712Z,10.77
2023-04-08T08:19:57.901Z,11.70
2023-04-08T08:22:27.667Z,13.52
2023-04-08T08:24:57.959Z,12.60
2023-04-08T08:27:28.767Z,9.95
2023-04-08T08:29:58.525Z,12.35
2023-04-08T08:32:28.213Z,9.50
2023-04-08T08:34:56.891Z,12.57
2023-04-08T08:37:25.159Z,11.93
2023-04-08T08:39:54.780Z,11.63
2023-04-08T08:42:26.083Z,24.05
2023-04-08T08:44:56.486Z,19.05
2023-04-08T08:47:24.912Z,14.25
2023-04-08T08:49:56.323Z,11.80
2023-04-08T08:52:26.333Z,11.52
2023-04-08T08:55:00.113Z,12.15
2023-04-08T08:57:29.679Z,14.70
2023-04-08T08:59:58.058Z,16.00
2023-04-08T09:02:29.066Z,12.40
2023-04-08T09:05:02.632Z,18.52
2023-04-08T09:07:38.116Z,13.30
2023-04-08T09:10:10.617Z,14.32
2023-04-08T09:12:57.675Z,13.18
2023-04-08T09:15:27.506Z,12.23
2023-04-08T09:17:58.596Z,11.00
2023-04-08T09:20:30.827Z,13.25
2023-04-08T09:23:01.692Z,14.15
2023-04-08T09:25:33.858Z,12.40
2023-04-08T09:28:03.530Z,13.45
2023-04-08T09:30:35.311Z,14.25
2023-04-08T09:33:07.450Z,12.85
2023-04-08T09:35:37.628Z,13.43
2023-04-08T09:38:06.080Z,15.65
2023-04-08T09:40:37.986Z,14.55
2023-04-08T09:43:10.446Z,15.82
2023-04-08T09:45:43.010Z,14.77
2023-04-08T09:48:18.329Z,15.70
2023-04-08T09:50:53.745Z,14.68
2023-04-08T09:53:31.842Z,17.40
2023-04-08T09:56:04.626Z,16.92
2023-04-08T09:58:47.177Z,17.60
2023-04-08T10:01:23.662Z,17.60
2023-04-08T10:03:58.244Z,14.52
2023-04-08T10:06:32.536Z,15.15
2023-04-08T10:09:04.347Z,14.20
2023-04-08T10:11:34.911Z,15.68
2023-04-08T10:14:04.541Z,17.25
2023-04-08T10:16:32.861Z,13.43
2023-04-08T10:19:02.641Z,14.55
2023-04-08T10:24:09.932Z,15.05
2023-04-08T10:26:43.530Z,14.23
2023-04-08T10:29:34.952Z,17.77
2023-04-08T10:32:04.602Z,21.58
2023-04-08T10:34:34.037Z,16.20
2023-04-08T10:37:05.618Z,21.45
2023-04-08T10:39:36.323Z,19.25
2023-04-08T10:42:13.432Z,17.08
2023-04-08T10:44:47.148Z,16.20
2023-04-08T10:47:16.919Z,15.32
2023-04-08T10:49:47.481Z,19.70
2023-04-08T10:52:21.316Z,16.33
2023-04-08T10:54:49.721Z,14.88
2023-04-08T10:57:24.847Z,17.15
2023-04-08T10:59:53.513Z,16.20
2023-04-08T11:02:21.839Z,16.75
2023-04-08T11:04:51.423Z,15.65
2023-04-08T11:07:24.404Z,14.77
2023-04-08T11:09:53.888Z,17.73
2023-04-08T11:12:23.441Z,17.15
2023-04-08T11:14:53.939Z,12.77
2023-04-08T11:17:24.206Z,15.32
2023-04-08T11:19:53.920Z,15.50
2023-04-08T11:22:26.025Z,15.18
2023-04-08T11:24:57.212Z,15.50
2023-04-08T11:27:26.232Z,14.20
2023-04-08T11:29:56.979Z,16.30
2023-04-08T11:32:27.059Z,18.08
2023-04-08T11:34:55.658Z,18.90
2023-04-08T11:37:29.908Z,18.58
2023-04-08T11:39:59.449Z,18.63
2023-04-08T11:42:28.929Z,20.02
2023-04-08T11:44:57.843Z,16.38
2023-04-08T11:47:34.723Z,15.23
2023-04-08T11:50:05.195Z,17.83
2023-04-08T11:52:47.472Z,18.20
2023-04-08T11:55:25.525Z,18.98
2023-04-08T11:57:54.924Z,17.45
2023-04-08T12:00:24.762Z,19.67
2023-04-08T12:02:53.743Z,20.23
2023-04-08T12:05:22.494Z,19.65
2023-04-08T12:10:21.803Z,17.75
2023-04-08T12:12:52.430Z,20.60
2023-04-08T12:15:21.976Z,23.13
2023-04-08T12:17:51.724Z,15.20
2023-04-08T12:20:21.724Z,17.55
2023-04-08T12:22:52.526Z,23.30
2023-04-08T12:25:22.534Z,20.60
2023-04-08T12:27:53.482Z,22.23
2023-04-08T12:30:22.393Z,22.80
2023-04-08T12:32:54.549Z,17.92
2023-04-08T12:35:24.405Z,20.27
2023-04-08T12:37:55.321Z,21.92
2023-04-08T12:40:23.773Z,20.90
2023-04-08T12:42:53.321Z,19.27
2023-04-08T12:45:23.048Z,21.67
2023-04-08T12:47:52.600Z,24.88
2023-04-08T12:50:22.277Z,20.02
2023-04-08T12:52:51.756Z,21.15
2023-04-08T12:55:25.027Z,24.55
2023-04-08T12:57:53.458Z,24.70
2023-04-08T13:00:21.818Z,20.30
2023-04-08T13:02:50.220Z,19.27
2023-04-08T13:05:21.665Z,23.83
2023-04-08T13:07:59.205Z,21.48
2023-04-08T13:10:28.976Z,25.45
2023-04-08T13:12:57.586Z,23.88
2023-04-08T13:22:55.933Z,26.33
2023-04-08T13:25:24.863Z,26.08
2023-04-08T13:27:55.740Z,20.92
2023-04-08T13:30:24.215Z,22.48
2023-04-08T13:32:53.773Z,29.70
2023-04-08T13:35:22.729Z,22.48
2023-04-08T13:37:52.280Z,22.95
2023-04-08T13:40:21.372Z,23.60
2023-04-08T13:42:49.721Z,21.20
2023-04-08T13:45:19.437Z,21.67
2023-04-08T13:47:50.253Z,23.45
2023-04-08T13:50:18.670Z,21.45
2023-04-08T13:52:49.334Z,22.50
2023-04-08T13:55:17.990Z,19.90
2023-04-08T13:57:48.687Z,21.85
2023-04-08T14:00:19.653Z,23.52
2023-04-08T14:02:51.774Z,24.00
2023-04-08T14:05:21.321Z,22.00
2023-04-08T14:07:52.022Z,22.67
2023-04-08T14:10:20.325Z,22.67
2023-04-08T14:12:49.813Z,22.95
2023-04-08T14:15:20.699Z,22.45
2023-04-08T14:17:50.366Z,22.05
2023-04-08T14:20:20.008Z,22.92
2023-04-08T14:22:49.491Z,23.27
2023-04-08T14:25:17.903Z,21.77
2023-04-08T14:27:57.815Z,25.95
2023-04-08T14:30:28.868Z,22.90
2023-04-08T14:32:59.265Z,25.27
2023-04-08T14:35:28.909Z,20.08
2023-04-08T14:37:58.767Z,22.52
2023-04-08T14:40:28.573Z,22.60
2023-04-08T14:42:58.120Z,17.88
2023-04-08T14:45:29.153Z,23.48
2023-04-08T14:47:58.718Z,21.27
2023-04-08T14:50:30.856Z,25.08
2023-04-08T14:53:02.466Z,23.85
2023-04-08T14:55:32.529Z,22.88
2023-04-08T14:58:04.600Z,23.73
2023-04-08T15:00:34.334Z,29.48
2023-04-08T15:03:05.224Z,23.15
2023-04-08T15:05:36.183Z,23.40
2023-04-08T15:08:05.260Z,25.63
2023-04-08T15:10:33.568Z,21.75
2023-04-08T15:13:02.270Z,24.17
2023-04-08T15:15:33.453Z,26.90
2023-04-08T15:18:04.620Z,23.48
2023-04-08T15:20:34.254Z,29.25
2023-04-08T15:23:05.449Z,26.42
2023-04-08T15:25:33.908Z,41.13
2023-04-08T15:28:04.858Z,22.98
2023-04-08T15:30:36.179Z,21.48
2023-04-08T15:33:06.627Z,21.52
2023-04-08T15:35:38.604Z,22.65
2023-04-08T15:38:09.883Z,31.10
2023-04-08T15:40:38.224Z,19.08
2023-04-08T15:43:08.005Z,19.10
2023-04-08T15:45:44.268Z,21.17
2023-04-08T15:48:15.062Z,20.70
2023-04-08T15:50:44.599Z,24.33
2023-04-08T15:53:13.214Z,24.42
2023-04-08T15:55:43.404Z,20.77
2023-04-08T15:58:15.293Z,24.15
2023-04-08T16:00:46.474Z,26.30
2023-04-08T16:03:16.245Z,21.90
2023-04-08T16:05:44.946Z,21.38
2023-04-08T16:08:14.456Z,21.95
2023-04-08T16:10:44.308Z,20.95
2023-04-08T16:13:12.774Z,23.50
2023-04-08T16:15:42.727Z,24.65
2023-04-08T16:18:14.625Z,23.95
2023-04-08T16:20:44.207Z,26.42
2023-04-08T16:23:15.527Z,27.73
2023-04-08T16:25:45.296Z,28.15
2023-04-08T16:28:13.868Z,28.25
2023-04-08T16:30:44.127Z,27.27
2023-04-08T16:33:13.813Z,32.88
2023-04-08T16:35:44.484Z,32.30
2023-04-08T16:38:15.396Z,38.75
2023-04-08T16:40:43.638Z,21.88
2023-04-08T16:43:14.180Z,27.63
2023-04-08T16:45:42.711Z,29.02
2023-04-08T16:48:14.980Z,27.50
2023-04-08T16:50:44.436Z,27.17
2023-04-08T16:53:15.169Z,31.42
2023-04-08T16:55:44.728Z,27.52
2023-04-08T16:58:14.206Z,25.92
2023-04-08T17:00:42.703Z,37.25
2023-04-08T17:03:14.902Z,24.83
2023-04-08T17:05:43.735Z,34.00
2023-04-08T17:10:41.443Z,40.55
2023-04-08T17:13:13.589Z,34.45
2023-04-08T17:15:44.643Z,28.58
2023-04-08T17:20:44.611Z,31.08
2023-04-08T17:23:15.289Z,25.45
2023-04-08T17:25:44.913Z,25.27
2023-04-08T17:28:14.636Z,28.08
2023-04-08T17:30:44.386Z,26.20
2023-04-08T17:33:15.538Z,29.70
2023-04-08T17:35:45.029Z,29.33
2023-04-08T17:38:15.829Z,26.85
2023-04-08T17:40:44.135Z,30.90
2023-04-08T17:43:12.907Z,33.60
2023-04-08T17:45:41.488Z,29.08
2023-04-08T17:48:11.056Z,31.58
2023-04-08T17:50:42.095Z,37.92
2023-04-08T17:53:11.567Z,29.88
2023-04-08T17:55:41.173Z,30.88
2023-04-08T17:58:10.627Z,25.55
2023-04-08T18:00:40.658Z,29.98
2023-04-08T18:03:10.902Z,24.65
2023-04-08T18:05:39.390Z,32.85
2023-04-08T18:08:10.613Z,30.77
2023-04-08T18:10:40.008Z,30.88
2023-04-08T18:13:11.792Z,33.08
2023-04-08T18:15:42.139Z,33.47
2023-04-08T18:18:11.897Z,33.72
2023-04-08T18:20:41.911Z,34.85
2023-04-08T18:23:12.833Z,25.98
2023-04-08T18:25:44.527Z,31.20
2023-04-08T18:28:15.171Z,27.20
2023-04-08T18:30:43.753Z,30.33
2023-04-08T18:33:13.279Z,25.10
2023-04-08T18:35:43.327Z,27.48
2023-04-08T18:38:14.187Z,32.45
2023-04-08T18:40:45.689Z,29.52
2023-04-08T18:43:15.972Z,30.20
2023-04-08T18:45:44.381Z,30.98
2023-04-08T18:48:14.956Z,39.38
2023-04-08T18:50:44.218Z,32.47
2023-04-08T18:53:16.329Z,33.33
2023-04-08T18:55:44.983Z,33.05
2023-04-08T18:58:14.705Z,32.65
2023-04-08T19:00:44.096Z,25.83
2023-04-08T19:03:12.865Z,33.10
2023-04-08T19:05:41.196Z,28.70
2023-04-08T19:08:10.824Z,29.05
2023-04-08T19:10:42.874Z,32.90
2023-04-08T19:13:12.224Z,34.35
2023-04-08T19:15:43.014Z,30.00
2023-04-08T19:18:11.783Z,37.65
2023-04-08T19:23:08.233Z,38.33
2023-04-08T19:25:39.107Z,25.98
2023-04-08T19:28:10.408Z,30.60
2023-04-08T19:30:40.522Z,27.90
2023-04-08T19:33:10.070Z,22.65
2023-04-08T19:35:38.757Z,24.38
2023-04-08T19:38:07.009Z,22.15
2023-04-08T19:40:36.473Z,26.10
2023-04-08T19:43:06.351Z,26.77
2023-04-08T19:45:37.288Z,26.52
2023-04-08T19:48:07.587Z,27.95
2023-04-08T19:50:39.171Z,27.58
2023-04-08T19:53:07.464Z,28.30
2023-04-08T19:55:38.866Z,27.15
2023-04-08T19:58:07.903Z,29.77
2023-04-08T20:00:38.524Z,33.38
2023-04-08T20:03:07.934Z,31.33
2023-04-08T20:05:40.600Z,37.63
2023-04-08T20:08:10.193Z,37.70
2023-04-08T20:10:41.311Z,36.55
2023-04-08T20:13:10.989Z,44.17
2023-04-08T20:15:41.867Z,39.22
2023-04-08T20:18:11.761Z,49.65
2023-04-08T20:20:41.324Z,50.22
2023-04-08T20:23:10.864Z,49.83
2023-04-08T20:25:39.261Z,53.30
2023-04-08T20:28:08.387Z,67.28
2023-04-08T20:30:37.873Z,56.55
2023-04-08T20:33:08.770Z,64.50
2023-04-08T20:35:40.789Z,77.43
2023-04-08T20:38:09.725Z,67.90
2023-04-08T20:40:43.926Z,68.93
2023-04-08T20:43:13.436Z,63.80
2023-04-08T20:45:41.716Z,61.90
2023-04-08T20:48:12.540Z,64.85
2023-04-08T20:50:42.005Z,74.32
2023-04-08T20:53:10.372Z,67.03
2023-04-08T20:55:40.265Z,69.78
2023-04-08T20:58:09.751Z,70.03
2023-04-08T21:00:39.295Z,64.90
2023-04-08T21:03:07.676Z,81.28
2023-04-08T21:05:42.048Z,78.75
2023-04-08T21:08:10.466Z,69.60
2023-04-08T21:10:39.882Z,79.40
2023-04-08T21:13:09.531Z,72.20
2023-04-08T21:15:39.023Z,67.97
2023-04-08T21:18:11.026Z,73.97
2023-04-08T21:20:42.198Z,94.93
2023-04-08T21:23:12.928Z,72.68
2023-04-08T21:25:42.411Z,94.55
2023-04-08T21:28:11.791Z,93.93
2023-04-08T21:30:41.896Z,82.28
2023-04-08T21:33:11.374Z,88.40
2023-04-08T21:35:42.258Z,103.45
2023-04-08T21:38:11.692Z,85.53
2023-04-08T21:40:42.468Z,92.13
2023-04-08T21:43:10.758Z,95.93
2023-04-08T21:45:39.079Z,114.85
2023-04-08T21:48:08.744Z,103.43
2023-04-08T21:50:39.140Z,102.93
2023-04-08T21:53:09.899Z,96.38
2023-04-08T21:55:39.326Z,98.20
2023-04-08T21:58:08.994Z,94.45
2023-04-08T22:00:40.042Z,110.85
2023-04-08T22:03:09.686Z,98.45
2023-04-08T22:05:39.608Z,104.07
2023-04-08T22:08:09.164Z,109.28
2023-04-08T22:10:39.010Z,109.10
2023-04-08T22:13:07.281Z,92.63
2023-04-08T22:15:36.819Z,80.95
2023-04-08T22:18:05.858Z,100.07
2023-04-08T22:20:37.711Z,88.40
2023-04-08T22:23:05.966Z,83.53
2023-04-08T22:25:35.530Z,118.95
2023-04-08T22:28:07.044Z,112.65
2023-04-08T22:30:36.935Z,91.45
2023-04-08T22:33:06.344Z,97.57
2023-04-08T22:35:34.586Z,106.55
2023-04-08T22:38:04.083Z,121.05
2023-04-08T22:40:33.438Z,131.32
2023-04-08T22:43:04.703Z,119.25
2023-04-08T22:45:34.086Z,125.65
2023-04-08T22:48:02.334Z,124.13
2023-04-08T22:50:31.779Z,135.77
2023-04-08T22:53:01.860Z,111.65
2023-04-08T22:55:32.655Z,90.60
2023-04-08T22:58:03.682Z,83.32
2023-04-08T23:00:34.304Z,86.00
2023-04-08T23:03:04.912Z,84.15
2023-04-08T23:05:34.588Z,107.35
2023-04-08T23:08:02.826Z,101.10
2023-04-08T23:10:33.455Z,120.63
2023-04-08T23:13:03.094Z,125.78
2023-04-08T23:15:31.963Z,120.43
2023-04-08T23:18:01.492Z,121.28
2023-04-08T23:20:30.955Z,136.52
2023-04-08T23:23:00.471Z,121.50
2023-04-08T23:25:29.949Z,127.30
2023-04-08T23:27:58.193Z,134.88
2023-04-08T23:30:30.328Z,143.18
2023-04-08T23:32:59.729Z,154.50
2023-04-08T23:35:29.258Z,133.30
2023-04-08T23:37:58.701Z,146.30
2023-04-08T23:40:27.167Z,157.95
2023-04-08T23:42:55.368Z,123.78
2023-04-08T23:45:23.558Z,136.52
2023-04-08T23:47:54.823Z,134.60
2023-04-08T23:50:24.248Z,104.97
2023-04-08T23:52:53.734Z,140.00
2023-04-08T23:55:23.526Z,125.90
2023-04-08T23:57:53.771Z,142.27
